Camanche, IA (52730)

7:02 PM CST on December 05, 2016 (GMT -0600)
MesoWest | | Change Station

Elev 638 ft 41.80 °N, 90.35 °W | Updated 2 hours ago

Overcast
Overcast
35.0 °F
Feels Like 32 °F
N
4.0
Wind Variable Wind from ESE
Gusts 9.0 mph

Today
High -- | Low -- °F
--% Chance of Precip.
Yesterday
High -- | Low -- °F
Precip. -- in
Pressure 30.00 in
Visibility 7.0 miles
Clouds Overcast 400 ft
Windchill 32 °F
Dew Point Not available.
Humidity Not available.
Rainfall in
Snow Depth Not available.
7:13 AM 4:30 PM
Waxing Crescent, 36% visible
METAR KCWI 060056Z AUTO 15015KT 7SM OVC004 00/M01 A2992 RMK AO2 SLP157 T00001006 FZRANO
Pressure 30.00 in
Visibility 7.0 miles
Clouds Overcast 400 ft
Windchill 32 °F
Dew Point Not available.
Humidity Not available.
Rainfall in
Snow Depth Not available.
7:13 AM 4:30 PM
Waxing Crescent, 36% visible
METAR KCWI 060056Z AUTO 15015KT 7SM OVC004 00/M01 A2992 RMK AO2 SLP157 T00001006 FZRANO

10-Day Weather Forecast

Almanac

Astronomy

Dec. 05, 2016 Rise Set
Actual Time
Civil Twilight
Nautical Twilight
Astronomical Twilight
Moon
Length of Visible Light
Length of Day
Tomorrow will be .
, % of the Moon is Illuminated

Today's Extremes

State Highs State Lows

Community

WunderPhotos

Upload Photos

1,955,880 photos uploaded!

WunderBlog® & News

Nearby

Air Quality

  Air Quality AQ Index Pollutant
Not available.

Snow Depth

Station Depth Elevation

Earthquake Activity

City Distance Mag. Time & Date
Minimum magnitude displayed is 2.5.

Coastal Water Temperatures

Place Temperature

Stations

Nearby Weather Stations

Station Location Temp. Windchill Dew Point Humidity Wind Precip. Elev Updated Type
                   

Watches & Warnings

There are currently no watches in effect.